sensor_id;sensor_type;location;lat;lon;timestamp;temperature;humidity
4697;DHT22;2362;50.780;0.292;2023-02-28T00:02:20;5.00;99.90
4697;DHT22;2362;50.780;0.292;2023-02-28T00:04:46;5.00;99.90
4697;DHT22;2362;50.780;0.292;2023-02-28T00:07:18;5.00;99.90
4697;DHT22;2362;50.780;0.292;2023-02-28T00:09:44;5.00;99.90
4697;DHT22;2362;50.780;0.292;2023-02-28T00:12:10;4.90;99.90
4697;DHT22;2362;50.780;0.292;2023-02-28T00:14:40;4.90;99.90
4697;DHT22;2362;50.780;0.292;2023-02-28T00:17:06;5.00;99.90
4697;DHT22;2362;50.780;0.292;2023-02-28T00:19:31;4.90;99.90
4697;DHT22;2362;50.780;0.292;2023-02-28T00:21:57;4.90;99.90
4697;DHT22;2362;50.780;0.292;2023-02-28T00:24:22;4.90;99.90
4697;DHT22;2362;50.780;0.292;2023-02-28T00:26:48;4.80;99.90
4697;DHT22;2362;50.780;0.292;2023-02-28T00:29:14;4.80;99.90
4697;DHT22;2362;50.780;0.292;2023-02-28T00:31:39;4.80;99.90
4697;DHT22;2362;50.780;0.292;2023-02-28T00:34:05;4.70;99.90
4697;DHT22;2362;50.780;0.292;2023-02-28T00:36:30;4.70;99.90
4697;DHT22;2362;50.780;0.292;2023-02-28T00:38:56;4.70;99.90
4697;DHT22;2362;50.780;0.292;2023-02-28T00:41:22;4.60;99.90
4697;DHT22;2362;50.780;0.292;2023-02-28T00:44:12;4.70;99.90
4697;DHT22;2362;50.780;0.292;2023-02-28T00:46:38;4.70;99.90
4697;DHT22;2362;50.780;0.292;2023-02-28T00:49:04;4.70;99.90
4697;DHT22;2362;50.780;0.292;2023-02-28T00:51:29;4.70;99.90
4697;DHT22;2362;50.780;0.292;2023-02-28T00:53:55;4.70;99.90
4697;DHT22;2362;50.780;0.292;2023-02-28T00:56:21;4.70;99.90
4697;DHT22;2362;50.780;0.292;2023-02-28T00:58:46;4.70;99.90
4697;DHT22;2362;50.780;0.292;2023-02-28T01:01:13;4.60;99.90
4697;DHT22;2362;50.780;0.292;2023-02-28T01:03:38;4.60;99.90
4697;DHT22;2362;50.780;0.292;2023-02-28T01:06:04;4.60;99.90
4697;DHT22;2362;50.780;0.292;2023-02-28T01:08:30;4.60;99.90
4697;DHT22;2362;50.780;0.292;2023-02-28T01:10:56;4.60;99.90
4697;DHT22;2362;50.780;0.292;2023-02-28T01:13:22;4.60;99.90
4697;DHT22;2362;50.780;0.292;2023-02-28T01:15:55;4.60;99.90
4697;DHT22;2362;50.780;0.292;2023-02-28T01:18:46;4.60;99.90
4697;DHT22;2362;50.780;0.292;2023-02-28T01:21:15;4.60;99.90
4697;DHT22;2362;50.780;0.292;2023-02-28T01:23:41;4.60;99.90
4697;DHT22;2362;50.780;0.292;2023-02-28T01:26:13;4.60;99.90
4697;DHT22;2362;50.780;0.292;2023-02-28T01:28:39;4.60;99.90
4697;DHT22;2362;50.780;0.292;2023-02-28T01:31:05;4.70;99.90
4697;DHT22;2362;50.780;0.292;2023-02-28T01:33:32;4.70;99.90
4697;DHT22;2362;50.780;0.292;2023-02-28T01:36:03;4.60;99.90
4697;DHT22;2362;50.780;0.292;2023-02-28T01:38:29;4.50;99.90
4697;DHT22;2362;50.780;0.292;2023-02-28T01:40:55;4.50;99.90
4697;DHT22;2362;50.780;0.292;2023-02-28T01:43:30;4.50;99.90
4697;DHT22;2362;50.780;0.292;2023-02-28T01:45:57;4.50;99.90
4697;DHT22;2362;50.780;0.292;2023-02-28T01:48:27;4.50;99.90
4697;DHT22;2362;50.780;0.292;2023-02-28T01:50:55;4.50;99.90
4697;DHT22;2362;50.780;0.292;2023-02-28T01:53:30;4.50;99.90
4697;DHT22;2362;50.780;0.292;2023-02-28T01:55:57;4.50;99.90
4697;DHT22;2362;50.780;0.292;2023-02-28T01:58:22;4.50;99.90
4697;DHT22;2362;50.780;0.292;2023-02-28T02:00:48;4.50;99.90
4697;DHT22;2362;50.780;0.292;2023-02-28T02:03:16;4.60;99.90
4697;DHT22;2362;50.780;0.292;2023-02-28T02:05:45;4.60;99.90
4697;DHT22;2362;50.780;0.292;2023-02-28T02:08:24;4.60;99.90
4697;DHT22;2362;50.780;0.292;2023-02-28T02:10:56;4.60;99.90
4697;DHT22;2362;50.780;0.292;2023-02-28T02:16:22;4.60;99.90
4697;DHT22;2362;50.780;0.292;2023-02-28T02:27:38;4.60;99.90
4697;DHT22;2362;50.780;0.292;2023-02-28T02:35:40;4.70;99.90
4697;DHT22;2362;50.780;0.292;2023-02-28T02:41:25;4.60;99.90
4697;DHT22;2362;50.780;0.292;2023-02-28T02:44:20;4.60;99.90
4697;DHT22;2362;50.780;0.292;2023-02-28T02:46:44;4.50;99.90
4697;DHT22;2362;50.780;0.292;2023-02-28T02:49:16;4.50;99.90
4697;DHT22;2362;50.780;0.292;2023-02-28T02:51:44;4.50;99.90
4697;DHT22;2362;50.780;0.292;2023-02-28T02:54:21;4.50;99.90
4697;DHT22;2362;50.780;0.292;2023-02-28T02:56:49;4.50;99.90
4697;DHT22;2362;50.780;0.292;2023-02-28T02:59:18;4.50;99.90
4697;DHT22;2362;50.780;0.292;2023-02-28T03:01:53;4.50;99.90
4697;DHT22;2362;50.780;0.292;2023-02-28T03:04:23;4.40;99.90
4697;DHT22;2362;50.780;0.292;2023-02-28T03:06:51;4.40;99.90
4697;DHT22;2362;50.780;0.292;2023-02-28T03:09:24;4.40;99.90
4697;DHT22;2362;50.780;0.292;2023-02-28T03:11:55;4.40;99.90
4697;DHT22;2362;50.780;0.292;2023-02-28T03:14:40;4.40;99.90
4697;DHT22;2362;50.780;0.292;2023-02-28T03:19:47;4.30;99.90
4697;DHT22;2362;50.780;0.292;2023-02-28T03:22:47;4.30;99.90
4697;DHT22;2362;50.780;0.292;2023-02-28T03:25:39;4.30;99.90
4697;DHT22;2362;50.780;0.292;2023-02-28T03:28:31;4.30;99.90
4697;DHT22;2362;50.780;0.292;2023-02-28T03:31:10;4.30;99.90
4697;DHT22;2362;50.780;0.292;2023-02-28T03:33:51;4.30;99.90
4697;DHT22;2362;50.780;0.292;2023-02-28T03:36:29;4.20;99.90
4697;DHT22;2362;50.780;0.292;2023-02-28T03:39:01;4.20;99.90
4697;DHT22;2362;50.780;0.292;2023-02-28T03:42:10;4.20;99.90
4697;DHT22;2362;50.780;0.292;2023-02-28T03:47:11;4.20;99.90
4697;DHT22;2362;50.780;0.292;2023-02-28T03:49:49;4.20;99.90
4697;DHT22;2362;50.780;0.292;2023-02-28T03:52:18;4.20;99.90
4697;DHT22;2362;50.780;0.292;2023-02-28T03:54:48;4.20;99.90
4697;DHT22;2362;50.780;0.292;2023-02-28T04:02:39;4.20;99.90
4697;DHT22;2362;50.780;0.292;2023-02-28T04:05:06;4.20;99.90
4697;DHT22;2362;50.780;0.292;2023-02-28T04:07:32;4.20;99.90
4697;DHT22;2362;50.780;0.292;2023-02-28T04:09:58;4.20;99.90
4697;DHT22;2362;50.780;0.292;2023-02-28T04:12:24;4.20;99.90
4697;DHT22;2362;50.780;0.292;2023-02-28T04:14:50;4.20;99.90
4697;DHT22;2362;50.780;0.292;2023-02-28T04:17:16;4.20;99.90
4697;DHT22;2362;50.780;0.292;2023-02-28T04:19:42;4.20;99.90
4697;DHT22;2362;50.780;0.292;2023-02-28T04:22:09;4.20;99.90
4697;DHT22;2362;50.780;0.292;2023-02-28T04:24:59;4.20;99.90
4697;DHT22;2362;50.780;0.292;2023-02-28T04:27:25;4.20;99.90
4697;DHT22;2362;50.780;0.292;2023-02-28T04:29:51;4.20;99.90
4697;DHT22;2362;50.780;0.292;2023-02-28T04:32:16;4.20;99.90
4697;DHT22;2362;50.780;0.292;2023-02-28T04:34:42;4.20;99.90
4697;DHT22;2362;50.780;0.292;2023-02-28T04:37:07;4.20;99.90
4697;DHT22;2362;50.780;0.292;2023-02-28T04:39:36;4.20;99.90
4697;DHT22;2362;50.780;0.292;2023-02-28T04:42:02;4.30;99.90
4697;DHT22;2362;50.780;0.292;2023-02-28T04:44:28;4.30;99.90
4697;DHT22;2362;50.780;0.292;2023-02-28T04:46:54;4.30;99.90
4697;DHT22;2362;50.780;0.292;2023-02-28T04:49:19;4.30;99.90
4697;DHT22;2362;50.780;0.292;2023-02-28T04:51:45;4.30;99.90
4697;DHT22;2362;50.780;0.292;2023-02-28T04:54:11;4.40;99.90
4697;DHT22;2362;50.780;0.292;2023-02-28T04:56:38;4.40;99.90
4697;DHT22;2362;50.780;0.292;2023-02-28T04:59:03;4.40;99.90
4697;DHT22;2362;50.780;0.292;2023-02-28T05:01:31;4.50;99.90
4697;DHT22;2362;50.780;0.292;2023-02-28T05:03:59;4.40;99.90
4697;DHT22;2362;50.780;0.292;2023-02-28T05:06:28;4.40;99.90
4697;DHT22;2362;50.780;0.292;2023-02-28T05:08:54;4.40;99.90
4697;DHT22;2362;50.780;0.292;2023-02-28T05:11:22;4.30;99.90
4697;DHT22;2362;50.780;0.292;2023-02-28T05:13:49;4.30;99.90
4697;DHT22;2362;50.780;0.292;2023-02-28T05:16:41;4.30;99.90
4697;DHT22;2362;50.780;0.292;2023-02-28T05:19:06;4.20;99.90
4697;DHT22;2362;50.780;0.292;2023-02-28T05:21:34;4.20;99.90
4697;DHT22;2362;50.780;0.292;2023-02-28T05:24:09;4.10;99.90
4697;DHT22;2362;50.780;0.292;2023-02-28T05:26:37;4.00;99.90
4697;DHT22;2362;50.780;0.292;2023-02-28T05:29:04;4.00;99.90
4697;DHT22;2362;50.780;0.292;2023-02-28T05:31:30;4.00;99.90
4697;DHT22;2362;50.780;0.292;2023-02-28T05:33:56;4.00;99.90
4697;DHT22;2362;50.780;0.292;2023-02-28T05:36:23;4.00;99.90
4697;DHT22;2362;50.780;0.292;2023-02-28T05:38:50;4.00;99.90
4697;DHT22;2362;50.780;0.292;2023-02-28T05:41:17;3.90;99.90
4697;DHT22;2362;50.780;0.292;2023-02-28T05:43:45;3.90;99.90
4697;DHT22;2362;50.780;0.292;2023-02-28T05:46:12;3.90;99.90
4697;DHT22;2362;50.780;0.292;2023-02-28T05:48:39;4.00;99.90
4697;DHT22;2362;50.780;0.292;2023-02-28T05:51:07;4.00;99.90
4697;DHT22;2362;50.780;0.292;2023-02-28T05:53:34;4.00;99.90
4697;DHT22;2362;50.780;0.292;2023-02-28T05:55:59;4.00;99.90
4697;DHT22;2362;50.780;0.292;2023-02-28T05:58:26;4.00;99.90
4697;DHT22;2362;50.780;0.292;2023-02-28T06:00:56;4.00;99.90
4697;DHT22;2362;50.780;0.292;2023-02-28T06:03:22;4.00;99.90
4697;DHT22;2362;50.780;0.292;2023-02-28T06:05:47;4.00;99.90
4697;DHT22;2362;50.780;0.292;2023-02-28T06:08:13;4.00;99.90
4697;DHT22;2362;50.780;0.292;2023-02-28T06:10:38;4.00;99.90
4697;DHT22;2362;50.780;0.292;2023-02-28T06:13:05;4.10;99.90
4697;DHT22;2362;50.780;0.292;2023-02-28T06:15:31;4.00;99.90
4697;DHT22;2362;50.780;0.292;2023-02-28T06:17:58;4.10;99.90
4697;DHT22;2362;50.780;0.292;2023-02-28T06:20:24;4.00;99.90
4697;DHT22;2362;50.780;0.292;2023-02-28T06:22:57;4.00;99.90
4697;DHT22;2362;50.780;0.292;2023-02-28T06:25:25;4.00;99.90
4697;DHT22;2362;50.780;0.292;2023-02-28T06:27:50;4.00;99.90
4697;DHT22;2362;50.780;0.292;2023-02-28T06:30:16;4.00;99.90
4697;DHT22;2362;50.780;0.292;2023-02-28T06:32:42;4.00;99.90
4697;DHT22;2362;50.780;0.292;2023-02-28T06:35:08;4.00;99.90
4697;DHT22;2362;50.780;0.292;2023-02-28T06:37:34;4.00;99.90
4697;DHT22;2362;50.780;0.292;2023-02-28T06:39:59;4.00;99.90
4697;DHT22;2362;50.780;0.292;2023-02-28T06:42:25;4.00;99.90
4697;DHT22;2362;50.780;0.292;2023-02-28T06:44:57;4.00;99.90
4697;DHT22;2362;50.780;0.292;2023-02-28T06:47:23;4.00;99.90
4697;DHT22;2362;50.780;0.292;2023-02-28T06:49:49;4.00;99.90
4697;DHT22;2362;50.780;0.292;2023-02-28T06:52:15;3.90;99.90
4697;DHT22;2362;50.780;0.292;2023-02-28T06:54:41;3.90;99.90
4697;DHT22;2362;50.780;0.292;2023-02-28T06:57:07;3.90;99.90
4697;DHT22;2362;50.780;0.292;2023-02-28T06:59:32;3.90;99.90
4697;DHT22;2362;50.780;0.292;2023-02-28T07:01:58;3.90;99.90
4697;DHT22;2362;50.780;0.292;2023-02-28T07:04:24;3.90;99.90
4697;DHT22;2362;50.780;0.292;2023-02-28T07:06:49;3.90;99.90
4697;DHT22;2362;50.780;0.292;2023-02-28T07:09:15;4.00;99.90
4697;DHT22;2362;50.780;0.292;2023-02-28T07:11:41;4.00;99.90
4697;DHT22;2362;50.780;0.292;2023-02-28T07:14:08;4.00;99.90
4697;DHT22;2362;50.780;0.292;2023-02-28T07:16:35;4.00;99.90
4697;DHT22;2362;50.780;0.292;2023-02-28T07:19:01;4.10;99.90
4697;DHT22;2362;50.780;0.292;2023-02-28T07:21:27;4.10;99.90
4697;DHT22;2362;50.780;0.292;2023-02-28T07:23:53;4.10;99.90
4697;DHT22;2362;50.780;0.292;2023-02-28T07:26:19;4.10;99.90
4697;DHT22;2362;50.780;0.292;2023-02-28T07:28:46;4.20;99.90
4697;DHT22;2362;50.780;0.292;2023-02-28T07:31:13;4.20;99.90
4697;DHT22;2362;50.780;0.292;2023-02-28T07:33:42;4.20;99.90
4697;DHT22;2362;50.780;0.292;2023-02-28T07:36:14;4.20;99.90
4697;DHT22;2362;50.780;0.292;2023-02-28T07:38:42;4.30;99.90
4697;DHT22;2362;50.780;0.292;2023-02-28T07:41:09;4.30;99.90
4697;DHT22;2362;50.780;0.292;2023-02-28T07:43:36;4.30;99.90
4697;DHT22;2362;50.780;0.292;2023-02-28T07:46:04;4.30;99.90
4697;DHT22;2362;50.780;0.292;2023-02-28T07:48:30;4.30;99.90
4697;DHT22;2362;50.780;0.292;2023-02-28T07:50:57;4.30;99.90
4697;DHT22;2362;50.780;0.292;2023-02-28T07:53:23;4.30;99.90
4697;DHT22;2362;50.780;0.292;2023-02-28T07:55:49;4.40;99.90
4697;DHT22;2362;50.780;0.292;2023-02-28T07:58:14;4.40;99.90
4697;DHT22;2362;50.780;0.292;2023-02-28T08:00:40;4.50;99.90
4697;DHT22;2362;50.780;0.292;2023-02-28T08:03:06;4.50;99.90
4697;DHT22;2362;50.780;0.292;2023-02-28T08:05:31;4.60;99.90
4697;DHT22;2362;50.780;0.292;2023-02-28T08:07:57;4.70;99.90
4697;DHT22;2362;50.780;0.292;2023-02-28T08:10:23;4.70;99.90
4697;DHT22;2362;50.780;0.292;2023-02-28T08:12:49;4.70;99.90
4697;DHT22;2362;50.780;0.292;2023-02-28T08:15:17;4.70;99.90
4697;DHT22;2362;50.780;0.292;2023-02-28T08:17:42;4.70;99.90
4697;DHT22;2362;50.780;0.292;2023-02-28T08:20:08;4.80;99.90
4697;DHT22;2362;50.780;0.292;2023-02-28T08:22:35;4.80;99.90
4697;DHT22;2362;50.780;0.292;2023-02-28T08:25:01;4.80;99.90
4697;DHT22;2362;50.780;0.292;2023-02-28T08:27:27;4.80;99.90
4697;DHT22;2362;50.780;0.292;2023-02-28T08:29:52;4.80;99.90
4697;DHT22;2362;50.780;0.292;2023-02-28T08:32:18;4.80;99.90
4697;DHT22;2362;50.780;0.292;2023-02-28T08:34:46;4.80;99.90
4697;DHT22;2362;50.780;0.292;2023-02-28T08:37:11;4.80;99.90
4697;DHT22;2362;50.780;0.292;2023-02-28T08:39:37;4.80;99.90
4697;DHT22;2362;50.780;0.292;2023-02-28T08:42:03;4.80;99.90
4697;DHT22;2362;50.780;0.292;2023-02-28T08:44:29;4.80;99.90
4697;DHT22;2362;50.780;0.292;2023-02-28T08:46:54;4.80;99.90
4697;DHT22;2362;50.780;0.292;2023-02-28T08:49:20;4.90;99.90
4697;DHT22;2362;50.780;0.292;2023-02-28T08:51:46;5.00;99.90
4697;DHT22;2362;50.780;0.292;2023-02-28T08:54:12;4.90;99.90
4697;DHT22;2362;50.780;0.292;2023-02-28T08:56:38;5.00;99.90
4697;DHT22;2362;50.780;0.292;2023-02-28T08:59:06;5.00;99.90
4697;DHT22;2362;50.780;0.292;2023-02-28T09:01:31;5.10;99.90
4697;DHT22;2362;50.780;0.292;2023-02-28T09:03:57;5.20;99.90
4697;DHT22;2362;50.780;0.292;2023-02-28T09:06:25;5.20;99.90
4697;DHT22;2362;50.780;0.292;2023-02-28T09:08:51;5.30;99.90
4697;DHT22;2362;50.780;0.292;2023-02-28T09:11:17;5.30;99.90
4697;DHT22;2362;50.780;0.292;2023-02-28T09:13:45;5.30;99.90
4697;DHT22;2362;50.780;0.292;2023-02-28T09:16:13;5.40;99.90
4697;DHT22;2362;50.780;0.292;2023-02-28T09:18:40;5.50;99.90
4697;DHT22;2362;50.780;0.292;2023-02-28T09:21:17;5.50;99.90
4697;DHT22;2362;50.780;0.292;2023-02-28T09:23:45;5.40;99.90
4697;DHT22;2362;50.780;0.292;2023-02-28T09:26:20;5.50;99.90
4697;DHT22;2362;50.780;0.292;2023-02-28T09:28:48;5.60;99.90
4697;DHT22;2362;50.780;0.292;2023-02-28T09:31:17;5.70;99.90
4697;DHT22;2362;50.780;0.292;2023-02-28T09:33:46;5.80;99.90
4697;DHT22;2362;50.780;0.292;2023-02-28T09:36:12;5.70;99.90
4697;DHT22;2362;50.780;0.292;2023-02-28T09:38:38;5.70;99.90
4697;DHT22;2362;50.780;0.292;2023-02-28T09:41:19;5.80;99.90
4697;DHT22;2362;50.780;0.292;2023-02-28T09:43:48;5.80;99.90
4697;DHT22;2362;50.780;0.292;2023-02-28T09:52:07;6.00;99.90
4697;DHT22;2362;50.780;0.292;2023-02-28T09:54:35;6.00;99.90
4697;DHT22;2362;50.780;0.292;2023-02-28T10:00:03;6.10;99.90
4697;DHT22;2362;50.780;0.292;2023-02-28T10:02:44;6.20;99.90
4697;DHT22;2362;50.780;0.292;2023-02-28T10:05:13;6.40;99.90
4697;DHT22;2362;50.780;0.292;2023-02-28T10:10:32;6.60;99.90
4697;DHT22;2362;50.780;0.292;2023-02-28T10:13:03;6.70;99.90
4697;DHT22;2362;50.780;0.292;2023-02-28T10:15:32;6.80;99.90
4697;DHT22;2362;50.780;0.292;2023-02-28T10:18:03;6.60;99.90
4697;DHT22;2362;50.780;0.292;2023-02-28T10:20:33;6.70;99.90
4697;DHT22;2362;50.780;0.292;2023-02-28T10:23:23;6.70;99.90
4697;DHT22;2362;50.780;0.292;2023-02-28T10:25:59;6.70;99.90
4697;DHT22;2362;50.780;0.292;2023-02-28T10:28:26;6.70;99.90
4697;DHT22;2362;50.780;0.292;2023-02-28T10:30:54;6.80;99.90
4697;DHT22;2362;50.780;0.292;2023-02-28T10:33:53;7.10;99.90
4697;DHT22;2362;50.780;0.292;2023-02-28T10:36:16;7.20;99.90
4697;DHT22;2362;50.780;0.292;2023-02-28T10:38:44;7.20;99.90
4697;DHT22;2362;50.780;0.292;2023-02-28T10:41:30;7.10;99.90
4697;DHT22;2362;50.780;0.292;2023-02-28T10:46:40;7.10;99.90
4697;DHT22;2362;50.780;0.292;2023-02-28T10:49:14;7.40;99.90
4697;DHT22;2362;50.780;0.292;2023-02-28T10:51:41;7.40;99.90
4697;DHT22;2362;50.780;0.292;2023-02-28T10:54:19;7.40;99.90
4697;DHT22;2362;50.780;0.292;2023-02-28T10:56:45;7.30;99.90
4697;DHT22;2362;50.780;0.292;2023-02-28T10:59:40;7.30;99.90
4697;DHT22;2362;50.780;0.292;2023-02-28T11:02:36;7.40;99.90
4697;DHT22;2362;50.780;0.292;2023-02-28T11:05:31;7.30;99.90
4697;DHT22;2362;50.780;0.292;2023-02-28T11:10:33;7.30;99.90
4697;DHT22;2362;50.780;0.292;2023-02-28T11:13:01;7.30;99.90
4697;DHT22;2362;50.780;0.292;2023-02-28T11:15:32;7.30;99.90
4697;DHT22;2362;50.780;0.292;2023-02-28T11:20:38;7.50;99.90
4697;DHT22;2362;50.780;0.292;2023-02-28T11:23:06;7.50;99.90
4697;DHT22;2362;50.780;0.292;2023-02-28T11:25:38;7.50;99.90
4697;DHT22;2362;50.780;0.292;2023-02-28T11:28:06;7.60;99.90
4697;DHT22;2362;50.780;0.292;2023-02-28T11:31:08;7.50;99.90
4697;DHT22;2362;50.780;0.292;2023-02-28T11:33:41;7.50;99.90
4697;DHT22;2362;50.780;0.292;2023-02-28T11:36:22;7.50;99.90
4697;DHT22;2362;50.780;0.292;2023-02-28T11:38:58;7.40;99.90
4697;DHT22;2362;50.780;0.292;2023-02-28T11:50:04;7.40;99.90
4697;DHT22;2362;50.780;0.292;2023-02-28T11:52:52;7.40;99.90
4697;DHT22;2362;50.780;0.292;2023-02-28T12:06:50;7.60;99.90
4697;DHT22;2362;50.780;0.292;2023-02-28T12:15:27;7.70;99.90
4697;DHT22;2362;50.780;0.292;2023-02-28T12:26:30;7.60;99.90
4697;DHT22;2362;50.780;0.292;2023-02-28T12:32:05;7.50;99.90
4697;DHT22;2362;50.780;0.292;2023-02-28T12:34:35;7.60;99.90
4697;DHT22;2362;50.780;0.292;2023-02-28T12:37:05;7.70;99.90
4697;DHT22;2362;50.780;0.292;2023-02-28T12:39:38;7.80;99.90
4697;DHT22;2362;50.780;0.292;2023-02-28T12:42:31;7.80;99.90
4697;DHT22;2362;50.780;0.292;2023-02-28T12:47:57;8.10;99.90
4697;DHT22;2362;50.780;0.292;2023-02-28T12:50:26;8.10;99.90
4697;DHT22;2362;50.780;0.292;2023-02-28T12:53:22;8.00;99.90
4697;DHT22;2362;50.780;0.292;2023-02-28T12:58:45;8.00;99.90
4697;DHT22;2362;50.780;0.292;2023-02-28T13:09:39;8.20;99.90
4697;DHT22;2362;50.780;0.292;2023-02-28T13:12:15;7.90;99.90
4697;DHT22;2362;50.780;0.292;2023-02-28T13:14:42;7.70;99.90
4697;DHT22;2362;50.780;0.292;2023-02-28T13:24:55;7.40;99.90
4697;DHT22;2362;50.780;0.292;2023-02-28T13:29:52;7.40;99.90
4697;DHT22;2362;50.780;0.292;2023-02-28T13:32:32;7.30;99.90
4697;DHT22;2362;50.780;0.292;2023-02-28T13:39:50;7.00;99.90
4697;DHT22;2362;50.780;0.292;2023-02-28T13:42:35;6.90;99.90
4697;DHT22;2362;50.780;0.292;2023-02-28T13:47:48;6.80;99.90
4697;DHT22;2362;50.780;0.292;2023-02-28T14:06:48;6.70;99.90
4697;DHT22;2362;50.780;0.292;2023-02-28T14:09:27;6.70;99.90
4697;DHT22;2362;50.780;0.292;2023-02-28T14:11:53;6.80;99.90
4697;DHT22;2362;50.780;0.292;2023-02-28T14:17:05;7.10;99.90
4697;DHT22;2362;50.780;0.292;2023-02-28T14:19:32;7.00;99.90
4697;DHT22;2362;50.780;0.292;2023-02-28T14:30:37;7.30;99.90
4697;DHT22;2362;50.780;0.292;2023-02-28T14:33:26;7.30;99.90
4697;DHT22;2362;50.780;0.292;2023-02-28T14:36:16;7.40;99.90
4697;DHT22;2362;50.780;0.292;2023-02-28T14:39:16;7.50;99.90
4697;DHT22;2362;50.780;0.292;2023-02-28T14:41:43;7.40;99.90
4697;DHT22;2362;50.780;0.292;2023-02-28T14:44:28;7.40;99.90
4697;DHT22;2362;50.780;0.292;2023-02-28T14:46:55;7.40;99.90
4697;DHT22;2362;50.780;0.292;2023-02-28T14:52:03;7.40;99.90
4697;DHT22;2362;50.780;0.292;2023-02-28T14:54:29;7.40;99.90
4697;DHT22;2362;50.780;0.292;2023-02-28T14:56:54;7.40;99.90
4697;DHT22;2362;50.780;0.292;2023-02-28T14:59:26;7.40;99.90
4697;DHT22;2362;50.780;0.292;2023-02-28T15:01:52;7.30;99.90
4697;DHT22;2362;50.780;0.292;2023-02-28T15:04:25;7.30;99.90
4697;DHT22;2362;50.780;0.292;2023-02-28T15:07:14;7.30;99.90
4697;DHT22;2362;50.780;0.292;2023-02-28T15:09:40;7.30;99.90
4697;DHT22;2362;50.780;0.292;2023-02-28T15:12:07;7.40;99.90
4697;DHT22;2362;50.780;0.292;2023-02-28T15:14:37;7.30;99.90
4697;DHT22;2362;50.780;0.292;2023-02-28T15:17:08;7.30;99.90
4697;DHT22;2362;50.780;0.292;2023-02-28T15:19:36;7.30;99.90
4697;DHT22;2362;50.780;0.292;2023-02-28T15:22:12;7.30;99.90
4697;DHT22;2362;50.780;0.292;2023-02-28T15:24:48;7.20;99.90
4697;DHT22;2362;50.780;0.292;2023-02-28T15:27:24;7.20;99.90
4697;DHT22;2362;50.780;0.292;2023-02-28T15:29:54;7.10;99.90
4697;DHT22;2362;50.780;0.292;2023-02-28T15:34:50;7.00;99.90
4697;DHT22;2362;50.780;0.292;2023-02-28T15:37:38;7.00;99.90
4697;DHT22;2362;50.780;0.292;2023-02-28T15:40:30;7.00;99.90
4697;DHT22;2362;50.780;0.292;2023-02-28T15:45:37;7.00;99.90
4697;DHT22;2362;50.780;0.292;2023-02-28T15:48:19;6.90;99.90
4697;DHT22;2362;50.780;0.292;2023-02-28T15:50:52;6.90;99.90
4697;DHT22;2362;50.780;0.292;2023-02-28T15:53:32;6.90;99.90
4697;DHT22;2362;50.780;0.292;2023-02-28T15:56:02;6.90;99.90
4697;DHT22;2362;50.780;0.292;2023-02-28T15:58:28;6.90;99.90
4697;DHT22;2362;50.780;0.292;2023-02-28T16:01:19;6.90;99.90
4697;DHT22;2362;50.780;0.292;2023-02-28T16:03:51;6.90;99.90
4697;DHT22;2362;50.780;0.292;2023-02-28T16:06:38;7.00;99.90
4697;DHT22;2362;50.780;0.292;2023-02-28T16:09:06;6.90;99.90
4697;DHT22;2362;50.780;0.292;2023-02-28T16:11:37;6.80;99.90
4697;DHT22;2362;50.780;0.292;2023-02-28T16:14:04;6.80;99.90
4697;DHT22;2362;50.780;0.292;2023-02-28T16:16:31;6.80;99.90
4697;DHT22;2362;50.780;0.292;2023-02-28T16:18:56;6.80;99.90
4697;DHT22;2362;50.780;0.292;2023-02-28T16:21:22;6.70;99.90
4697;DHT22;2362;50.780;0.292;2023-02-28T16:23:49;6.70;99.90
4697;DHT22;2362;50.780;0.292;2023-02-28T16:26:20;6.60;99.90
4697;DHT22;2362;50.780;0.292;2023-02-28T16:28:46;6.60;99.90
4697;DHT22;2362;50.780;0.292;2023-02-28T16:31:14;6.70;99.90
4697;DHT22;2362;50.780;0.292;2023-02-28T16:33:43;6.60;99.90
4697;DHT22;2362;50.780;0.292;2023-02-28T16:36:18;6.70;99.90
4697;DHT22;2362;50.780;0.292;2023-02-28T16:38:44;6.60;99.90
4697;DHT22;2362;50.780;0.292;2023-02-28T16:41:17;6.60;99.90
4697;DHT22;2362;50.780;0.292;2023-02-28T16:43:46;6.60;99.90
4697;DHT22;2362;50.780;0.292;2023-02-28T16:46:12;6.50;99.90
4697;DHT22;2362;50.780;0.292;2023-02-28T16:48:39;6.50;99.90
4697;DHT22;2362;50.780;0.292;2023-02-28T16:51:11;6.40;99.90
4697;DHT22;2362;50.780;0.292;2023-02-28T16:53:37;6.40;99.90
4697;DHT22;2362;50.780;0.292;2023-02-28T16:56:02;6.40;99.90
4697;DHT22;2362;50.780;0.292;2023-02-28T16:58:29;6.30;99.90
4697;DHT22;2362;50.780;0.292;2023-02-28T17:00:55;5.90;99.90
4697;DHT22;2362;50.780;0.292;2023-02-28T17:03:26;5.70;99.90
4697;DHT22;2362;50.780;0.292;2023-02-28T17:05:53;5.30;99.90
4697;DHT22;2362;50.780;0.292;2023-02-28T17:08:18;5.10;99.90
4697;DHT22;2362;50.780;0.292;2023-02-28T17:10:44;4.90;99.90
4697;DHT22;2362;50.780;0.292;2023-02-28T17:13:10;4.80;99.90
4697;DHT22;2362;50.780;0.292;2023-02-28T17:15:37;4.70;99.90
4697;DHT22;2362;50.780;0.292;2023-02-28T17:18:04;4.60;99.90
4697;DHT22;2362;50.780;0.292;2023-02-28T17:20:30;4.60;99.90
4697;DHT22;2362;50.780;0.292;2023-02-28T17:22:56;4.60;99.90
4697;DHT22;2362;50.780;0.292;2023-02-28T17:25:22;4.50;99.90
4697;DHT22;2362;50.780;0.292;2023-02-28T17:27:49;4.50;99.90
4697;DHT22;2362;50.780;0.292;2023-02-28T17:30:24;4.50;99.90
4697;DHT22;2362;50.780;0.292;2023-02-28T17:32:53;4.50;99.90
4697;DHT22;2362;50.780;0.292;2023-02-28T17:35:19;4.40;99.90
4697;DHT22;2362;50.780;0.292;2023-02-28T17:37:45;4.40;99.90
4697;DHT22;2362;50.780;0.292;2023-02-28T17:40:16;4.40;99.90
4697;DHT22;2362;50.780;0.292;2023-02-28T17:42:43;4.40;99.90
4697;DHT22;2362;50.780;0.292;2023-02-28T17:45:09;4.40;99.90
4697;DHT22;2362;50.780;0.292;2023-02-28T17:47:35;4.30;99.90
4697;DHT22;2362;50.780;0.292;2023-02-28T17:50:00;4.30;99.90
4697;DHT22;2362;50.780;0.292;2023-02-28T17:52:26;4.30;99.90
4697;DHT22;2362;50.780;0.292;2023-02-28T17:54:51;4.30;99.90
4697;DHT22;2362;50.780;0.292;2023-02-28T17:57:17;4.30;99.90
4697;DHT22;2362;50.780;0.292;2023-02-28T17:59:45;4.30;99.90
4697;DHT22;2362;50.780;0.292;2023-02-28T18:02:13;4.30;99.90
4697;DHT22;2362;50.780;0.292;2023-02-28T18:04:39;4.30;99.90
4697;DHT22;2362;50.780;0.292;2023-02-28T18:07:06;4.30;99.90
4697;DHT22;2362;50.780;0.292;2023-02-28T18:09:34;4.30;99.90
4697;DHT22;2362;50.780;0.292;2023-02-28T18:12:00;4.30;99.90
4697;DHT22;2362;50.780;0.292;2023-02-28T18:14:25;4.30;99.90
4697;DHT22;2362;50.780;0.292;2023-02-28T18:16:53;4.40;99.90
4697;DHT22;2362;50.780;0.292;2023-02-28T18:19:19;4.40;99.90
4697;DHT22;2362;50.780;0.292;2023-02-28T18:21:51;4.30;99.90
4697;DHT22;2362;50.780;0.292;2023-02-28T18:24:19;4.30;99.90
4697;DHT22;2362;50.780;0.292;2023-02-28T18:26:45;4.30;99.90
4697;DHT22;2362;50.780;0.292;2023-02-28T18:29:22;4.30;99.90
4697;DHT22;2362;50.780;0.292;2023-02-28T18:31:48;4.30;99.90
4697;DHT22;2362;50.780;0.292;2023-02-28T18:34:14;4.30;99.90
4697;DHT22;2362;50.780;0.292;2023-02-28T18:36:40;4.20;99.90
4697;DHT22;2362;50.780;0.292;2023-02-28T18:39:07;4.20;99.90
4697;DHT22;2362;50.780;0.292;2023-02-28T18:41:33;4.20;99.90
4697;DHT22;2362;50.780;0.292;2023-02-28T18:43:59;4.10;99.90
4697;DHT22;2362;50.780;0.292;2023-02-28T18:46:27;4.10;99.90
4697;DHT22;2362;50.780;0.292;2023-02-28T18:48:53;4.00;99.90
4697;DHT22;2362;50.780;0.292;2023-02-28T18:51:21;4.00;99.90
4697;DHT22;2362;50.780;0.292;2023-02-28T18:53:47;4.00;99.90
4697;DHT22;2362;50.780;0.292;2023-02-28T18:56:15;4.00;99.90
4697;DHT22;2362;50.780;0.292;2023-02-28T18:58:42;4.00;99.90
4697;DHT22;2362;50.780;0.292;2023-02-28T19:01:17;3.90;99.90
4697;DHT22;2362;50.780;0.292;2023-02-28T19:03:43;3.80;99.90
4697;DHT22;2362;50.780;0.292;2023-02-28T19:06:08;3.80;99.90
4697;DHT22;2362;50.780;0.292;2023-02-28T19:08:35;3.70;99.90
4697;DHT22;2362;50.780;0.292;2023-02-28T19:11:21;3.70;99.90